sensor_id;sensor_type;location;lat;lon;timestamp;temperature;humidity
32600;DHT22;19277;51.778;7.912;2023-07-29T00:01:05;22.50;99.70
32600;DHT22;19277;51.778;7.912;2023-07-29T00:03:31;22.50;99.70
32600;DHT22;19277;51.778;7.912;2023-07-29T00:05:57;22.50;99.80
32600;DHT22;19277;51.778;7.912;2023-07-29T00:08:23;22.50;99.90
32600;DHT22;19277;51.778;7.912;2023-07-29T00:10:48;22.50;99.90
32600;DHT22;19277;51.778;7.912;2023-07-29T00:13:14;22.50;99.90
32600;DHT22;19277;51.778;7.912;2023-07-29T00:15:39;22.50;99.90
32600;DHT22;19277;51.778;7.912;2023-07-29T00:18:05;22.40;99.90
32600;DHT22;19277;51.778;7.912;2023-07-29T00:20:30;22.50;99.90
32600;DHT22;19277;51.778;7.912;2023-07-29T00:22:56;22.40;99.90
32600;DHT22;19277;51.778;7.912;2023-07-29T00:25:23;22.40;99.90
32600;DHT22;19277;51.778;7.912;2023-07-29T00:27:49;22.40;99.90
32600;DHT22;19277;51.778;7.912;2023-07-29T00:30:14;22.50;99.90
32600;DHT22;19277;51.778;7.912;2023-07-29T00:32:40;22.50;99.90
32600;DHT22;19277;51.778;7.912;2023-07-29T00:35:06;22.40;99.90
32600;DHT22;19277;51.778;7.912;2023-07-29T00:37:32;22.40;99.90
32600;DHT22;19277;51.778;7.912;2023-07-29T00:39:57;22.40;99.90
32600;DHT22;19277;51.778;7.912;2023-07-29T00:42:24;22.30;99.90
32600;DHT22;19277;51.778;7.912;2023-07-29T00:44:49;22.30;99.90
32600;DHT22;19277;51.778;7.912;2023-07-29T00:47:15;22.30;99.90
32600;DHT22;19277;51.778;7.912;2023-07-29T00:49:42;22.30;99.90
32600;DHT22;19277;51.778;7.912;2023-07-29T00:52:08;22.30;99.90
32600;DHT22;19277;51.778;7.912;2023-07-29T00:54:36;22.30;99.90
32600;DHT22;19277;51.778;7.912;2023-07-29T00:57:02;22.30;99.90
32600;DHT22;19277;51.778;7.912;2023-07-29T00:59:28;22.30;99.90
32600;DHT22;19277;51.778;7.912;2023-07-29T01:01:55;22.40;99.90
32600;DHT22;19277;51.778;7.912;2023-07-29T01:04:21;22.50;99.90
32600;DHT22;19277;51.778;7.912;2023-07-29T01:07:01;22.60;99.90
32600;DHT22;19277;51.778;7.912;2023-07-29T01:12:42;22.80;99.90
32600;DHT22;19277;51.778;7.912;2023-07-29T01:15:18;22.90;99.60
32600;DHT22;19277;51.778;7.912;2023-07-29T01:17:52;22.90;99.40
32600;DHT22;19277;51.778;7.912;2023-07-29T01:20:19;23.00;99.40
32600;DHT22;19277;51.778;7.912;2023-07-29T01:22:46;23.10;99.20
32600;DHT22;19277;51.778;7.912;2023-07-29T01:25:12;23.10;99.10
32600;DHT22;19277;51.778;7.912;2023-07-29T01:27:38;23.20;99.00
32600;DHT22;19277;51.778;7.912;2023-07-29T01:30:05;23.20;98.80
32600;DHT22;19277;51.778;7.912;2023-07-29T01:33:14;23.20;98.70
32600;DHT22;19277;51.778;7.912;2023-07-29T01:35:48;23.30;98.60
32600;DHT22;19277;51.778;7.912;2023-07-29T01:38:18;23.30;98.50
32600;DHT22;19277;51.778;7.912;2023-07-29T01:40:46;23.30;98.40
32600;DHT22;19277;51.778;7.912;2023-07-29T01:43:12;23.40;98.30
32600;DHT22;19277;51.778;7.912;2023-07-29T01:45:39;23.40;98.30
32600;DHT22;19277;51.778;7.912;2023-07-29T01:48:06;23.40;98.20
32600;DHT22;19277;51.778;7.912;2023-07-29T01:50:31;23.40;98.10
32600;DHT22;19277;51.778;7.912;2023-07-29T01:52:58;23.40;98.10
32600;DHT22;19277;51.778;7.912;2023-07-29T01:55:23;23.40;98.00
32600;DHT22;19277;51.778;7.912;2023-07-29T01:57:49;23.50;98.00
32600;DHT22;19277;51.778;7.912;2023-07-29T02:00:15;23.50;97.90
32600;DHT22;19277;51.778;7.912;2023-07-29T02:02:41;23.50;97.90
32600;DHT22;19277;51.778;7.912;2023-07-29T02:05:06;23.50;97.80
32600;DHT22;19277;51.778;7.912;2023-07-29T02:07:32;23.50;97.80
32600;DHT22;19277;51.778;7.912;2023-07-29T02:09:58;23.50;97.80
32600;DHT22;19277;51.778;7.912;2023-07-29T02:12:24;23.50;97.70
32600;DHT22;19277;51.778;7.912;2023-07-29T02:14:49;23.50;97.70
32600;DHT22;19277;51.778;7.912;2023-07-29T02:17:15;23.60;97.70
32600;DHT22;19277;51.778;7.912;2023-07-29T02:19:40;23.60;97.60
32600;DHT22;19277;51.778;7.912;2023-07-29T02:22:06;23.60;97.60
32600;DHT22;19277;51.778;7.912;2023-07-29T02:24:32;23.60;97.50
32600;DHT22;19277;51.778;7.912;2023-07-29T02:26:57;23.60;97.50
32600;DHT22;19277;51.778;7.912;2023-07-29T02:29:23;23.60;97.50
32600;DHT22;19277;51.778;7.912;2023-07-29T02:31:50;23.60;97.50
32600;DHT22;19277;51.778;7.912;2023-07-29T02:34:16;23.60;97.40
32600;DHT22;19277;51.778;7.912;2023-07-29T02:36:41;23.60;97.40
32600;DHT22;19277;51.778;7.912;2023-07-29T02:39:07;23.60;97.40
32600;DHT22;19277;51.778;7.912;2023-07-29T02:41:32;23.60;97.30
32600;DHT22;19277;51.778;7.912;2023-07-29T02:43:58;23.60;97.30
32600;DHT22;19277;51.778;7.912;2023-07-29T02:46:24;23.70;97.30
32600;DHT22;19277;51.778;7.912;2023-07-29T02:48:49;23.70;97.30
32600;DHT22;19277;51.778;7.912;2023-07-29T02:51:15;23.70;97.20
32600;DHT22;19277;51.778;7.912;2023-07-29T02:53:41;23.70;97.20
32600;DHT22;19277;51.778;7.912;2023-07-29T02:56:06;23.70;97.20
32600;DHT22;19277;51.778;7.912;2023-07-29T02:58:34;23.70;97.20
32600;DHT22;19277;51.778;7.912;2023-07-29T03:01:01;23.70;97.30
32600;DHT22;19277;51.778;7.912;2023-07-29T03:03:28;23.70;97.20
32600;DHT22;19277;51.778;7.912;2023-07-29T03:06:04;23.70;97.20
32600;DHT22;19277;51.778;7.912;2023-07-29T03:08:30;23.70;97.20
32600;DHT22;19277;51.778;7.912;2023-07-29T03:10:56;23.70;97.20
32600;DHT22;19277;51.778;7.912;2023-07-29T03:13:22;23.70;97.20
32600;DHT22;19277;51.778;7.912;2023-07-29T03:15:48;23.70;97.40
32600;DHT22;19277;51.778;7.912;2023-07-29T03:18:14;23.70;97.30
32600;DHT22;19277;51.778;7.912;2023-07-29T03:20:40;23.70;97.10
32600;DHT22;19277;51.778;7.912;2023-07-29T03:23:06;23.70;97.10
32600;DHT22;19277;51.778;7.912;2023-07-29T03:25:32;23.80;97.10
32600;DHT22;19277;51.778;7.912;2023-07-29T03:27:57;23.80;97.00
32600;DHT22;19277;51.778;7.912;2023-07-29T03:30:23;23.80;97.00
32600;DHT22;19277;51.778;7.912;2023-07-29T03:32:49;23.80;97.00
32600;DHT22;19277;51.778;7.912;2023-07-29T03:35:15;23.80;96.90
32600;DHT22;19277;51.778;7.912;2023-07-29T03:37:41;23.80;96.90
32600;DHT22;19277;51.778;7.912;2023-07-29T03:40:07;23.80;96.90
32600;DHT22;19277;51.778;7.912;2023-07-29T03:42:33;23.80;96.90
32600;DHT22;19277;51.778;7.912;2023-07-29T03:44:59;23.80;96.80
32600;DHT22;19277;51.778;7.912;2023-07-29T03:47:24;23.80;96.80
32600;DHT22;19277;51.778;7.912;2023-07-29T03:49:50;23.80;96.80
32600;DHT22;19277;51.778;7.912;2023-07-29T03:52:15;23.80;96.70
32600;DHT22;19277;51.778;7.912;2023-07-29T03:54:41;23.80;96.70
32600;DHT22;19277;51.778;7.912;2023-07-29T03:57:07;23.80;96.70
32600;DHT22;19277;51.778;7.912;2023-07-29T03:59:32;23.80;96.70
32600;DHT22;19277;51.778;7.912;2023-07-29T04:01:58;23.90;96.70
32600;DHT22;19277;51.778;7.912;2023-07-29T04:04:24;23.90;96.70
32600;DHT22;19277;51.778;7.912;2023-07-29T04:06:49;23.90;96.70
32600;DHT22;19277;51.778;7.912;2023-07-29T04:09:15;23.90;96.60
32600;DHT22;19277;51.778;7.912;2023-07-29T04:11:41;23.90;96.70
32600;DHT22;19277;51.778;7.912;2023-07-29T04:14:06;23.90;96.70
32600;DHT22;19277;51.778;7.912;2023-07-29T04:16:32;23.90;96.70
32600;DHT22;19277;51.778;7.912;2023-07-29T04:18:57;23.90;96.70
32600;DHT22;19277;51.778;7.912;2023-07-29T04:21:23;23.90;96.70
32600;DHT22;19277;51.778;7.912;2023-07-29T04:23:48;23.90;96.60
32600;DHT22;19277;51.778;7.912;2023-07-29T04:26:14;23.90;96.60
32600;DHT22;19277;51.778;7.912;2023-07-29T04:28:39;23.90;96.60
32600;DHT22;19277;51.778;7.912;2023-07-29T04:31:05;23.90;96.50
32600;DHT22;19277;51.778;7.912;2023-07-29T04:33:30;23.90;96.50
32600;DHT22;19277;51.778;7.912;2023-07-29T04:35:56;23.90;96.40
32600;DHT22;19277;51.778;7.912;2023-07-29T04:38:24;23.90;96.40
32600;DHT22;19277;51.778;7.912;2023-07-29T04:40:49;23.90;96.40
32600;DHT22;19277;51.778;7.912;2023-07-29T04:43:15;23.90;96.40
32600;DHT22;19277;51.778;7.912;2023-07-29T04:45:44;23.90;96.30
32600;DHT22;19277;51.778;7.912;2023-07-29T04:48:09;23.90;96.30
32600;DHT22;19277;51.778;7.912;2023-07-29T04:50:35;23.90;96.30
32600;DHT22;19277;51.778;7.912;2023-07-29T04:53:00;23.90;96.30
32600;DHT22;19277;51.778;7.912;2023-07-29T04:55:26;23.90;96.30
32600;DHT22;19277;51.778;7.912;2023-07-29T04:57:51;24.00;96.30
32600;DHT22;19277;51.778;7.912;2023-07-29T05:00:17;23.90;96.30
32600;DHT22;19277;51.778;7.912;2023-07-29T05:02:43;24.00;96.30
32600;DHT22;19277;51.778;7.912;2023-07-29T05:05:08;24.00;96.30
32600;DHT22;19277;51.778;7.912;2023-07-29T05:07:34;24.00;96.20
32600;DHT22;19277;51.778;7.912;2023-07-29T05:10:00;24.00;96.20
32600;DHT22;19277;51.778;7.912;2023-07-29T05:12:25;24.00;96.20
32600;DHT22;19277;51.778;7.912;2023-07-29T05:14:51;24.10;96.20
32600;DHT22;19277;51.778;7.912;2023-07-29T05:17:16;24.10;96.10
32600;DHT22;19277;51.778;7.912;2023-07-29T05:19:42;24.10;96.10
32600;DHT22;19277;51.778;7.912;2023-07-29T05:22:07;24.10;96.10
32600;DHT22;19277;51.778;7.912;2023-07-29T05:24:33;24.10;96.10
32600;DHT22;19277;51.778;7.912;2023-07-29T05:26:59;24.10;96.10
32600;DHT22;19277;51.778;7.912;2023-07-29T05:29:24;24.10;96.00
32600;DHT22;19277;51.778;7.912;2023-07-29T05:31:50;24.10;96.10
32600;DHT22;19277;51.778;7.912;2023-07-29T05:34:15;24.10;96.10
32600;DHT22;19277;51.778;7.912;2023-07-29T05:36:41;24.10;96.10
32600;DHT22;19277;51.778;7.912;2023-07-29T05:39:06;24.10;96.30
32600;DHT22;19277;51.778;7.912;2023-07-29T05:41:32;24.10;96.10
32600;DHT22;19277;51.778;7.912;2023-07-29T05:43:58;24.10;96.10
32600;DHT22;19277;51.778;7.912;2023-07-29T05:46:23;24.10;96.10
32600;DHT22;19277;51.778;7.912;2023-07-29T05:48:49;24.10;96.10
32600;DHT22;19277;51.778;7.912;2023-07-29T05:51:15;24.10;96.10
32600;DHT22;19277;51.778;7.912;2023-07-29T05:53:40;24.10;96.10
32600;DHT22;19277;51.778;7.912;2023-07-29T05:56:06;24.10;96.10
32600;DHT22;19277;51.778;7.912;2023-07-29T05:58:31;24.10;96.10
32600;DHT22;19277;51.778;7.912;2023-07-29T06:00:58;24.10;96.10
32600;DHT22;19277;51.778;7.912;2023-07-29T06:03:23;24.10;96.10
32600;DHT22;19277;51.778;7.912;2023-07-29T06:05:49;24.20;96.10
32600;DHT22;19277;51.778;7.912;2023-07-29T06:08:15;24.20;96.10
32600;DHT22;19277;51.778;7.912;2023-07-29T06:10:40;24.20;96.00
32600;DHT22;19277;51.778;7.912;2023-07-29T06:13:06;24.20;96.10
32600;DHT22;19277;51.778;7.912;2023-07-29T06:15:32;24.20;96.00
32600;DHT22;19277;51.778;7.912;2023-07-29T06:17:57;24.20;96.00
32600;DHT22;19277;51.778;7.912;2023-07-29T06:20:23;24.30;96.10
32600;DHT22;19277;51.778;7.912;2023-07-29T06:22:49;24.30;96.00
32600;DHT22;19277;51.778;7.912;2023-07-29T06:25:14;24.30;95.90
32600;DHT22;19277;51.778;7.912;2023-07-29T06:27:40;24.30;95.90
32600;DHT22;19277;51.778;7.912;2023-07-29T06:30:05;24.30;95.90
32600;DHT22;19277;51.778;7.912;2023-07-29T06:32:31;24.30;95.90
32600;DHT22;19277;51.778;7.912;2023-07-29T06:34:57;24.30;95.90
32600;DHT22;19277;51.778;7.912;2023-07-29T06:37:23;24.30;95.90
32600;DHT22;19277;51.778;7.912;2023-07-29T06:39:48;24.30;95.90
32600;DHT22;19277;51.778;7.912;2023-07-29T06:42:14;24.40;95.90
32600;DHT22;19277;51.778;7.912;2023-07-29T06:44:40;24.30;95.90
32600;DHT22;19277;51.778;7.912;2023-07-29T06:47:05;24.30;95.90
32600;DHT22;19277;51.778;7.912;2023-07-29T06:49:31;24.30;95.80
32600;DHT22;19277;51.778;7.912;2023-07-29T06:51:57;24.40;95.90
32600;DHT22;19277;51.778;7.912;2023-07-29T06:54:25;24.40;95.90
32600;DHT22;19277;51.778;7.912;2023-07-29T06:56:52;24.40;95.80
32600;DHT22;19277;51.778;7.912;2023-07-29T06:59:17;24.40;95.90
32600;DHT22;19277;51.778;7.912;2023-07-29T07:01:43;24.40;95.90
32600;DHT22;19277;51.778;7.912;2023-07-29T07:04:08;24.40;95.90
32600;DHT22;19277;51.778;7.912;2023-07-29T07:06:34;24.40;95.90
32600;DHT22;19277;51.778;7.912;2023-07-29T07:09:00;24.40;95.90
32600;DHT22;19277;51.778;7.912;2023-07-29T07:11:25;24.40;95.40
32600;DHT22;19277;51.778;7.912;2023-07-29T07:13:51;24.40;95.10
32600;DHT22;19277;51.778;7.912;2023-07-29T07:16:16;24.40;95.10
32600;DHT22;19277;51.778;7.912;2023-07-29T07:18:42;24.40;94.80
32600;DHT22;19277;51.778;7.912;2023-07-29T07:21:07;24.40;94.70
32600;DHT22;19277;51.778;7.912;2023-07-29T07:23:33;24.40;94.80
32600;DHT22;19277;51.778;7.912;2023-07-29T07:25:58;24.40;94.50
32600;DHT22;19277;51.778;7.912;2023-07-29T07:28:24;24.30;94.50
32600;DHT22;19277;51.778;7.912;2023-07-29T07:30:50;24.30;94.10
32600;DHT22;19277;51.778;7.912;2023-07-29T07:33:15;24.30;94.10
32600;DHT22;19277;51.778;7.912;2023-07-29T07:35:41;24.30;93.90
32600;DHT22;19277;51.778;7.912;2023-07-29T07:38:08;24.30;93.60
32600;DHT22;19277;51.778;7.912;2023-07-29T07:40:35;24.30;93.30
32600;DHT22;19277;51.778;7.912;2023-07-29T07:43:01;24.30;92.90
32600;DHT22;19277;51.778;7.912;2023-07-29T07:45:26;24.30;92.80
32600;DHT22;19277;51.778;7.912;2023-07-29T07:47:53;24.30;92.60
32600;DHT22;19277;51.778;7.912;2023-07-29T07:50:21;24.30;92.20
32600;DHT22;19277;51.778;7.912;2023-07-29T07:52:47;24.40;92.00
32600;DHT22;19277;51.778;7.912;2023-07-29T07:55:12;24.30;91.90
32600;DHT22;19277;51.778;7.912;2023-07-29T07:57:38;24.30;91.70
32600;DHT22;19277;51.778;7.912;2023-07-29T08:00:04;24.40;92.00
32600;DHT22;19277;51.778;7.912;2023-07-29T08:02:30;24.40;91.80
32600;DHT22;19277;51.778;7.912;2023-07-29T08:04:55;24.40;91.70
32600;DHT22;19277;51.778;7.912;2023-07-29T08:07:21;24.40;91.70
32600;DHT22;19277;51.778;7.912;2023-07-29T08:09:47;24.40;91.60
32600;DHT22;19277;51.778;7.912;2023-07-29T08:12:12;24.40;91.80
32600;DHT22;19277;51.778;7.912;2023-07-29T08:14:38;24.40;91.70
32600;DHT22;19277;51.778;7.912;2023-07-29T08:17:03;24.40;91.60
32600;DHT22;19277;51.778;7.912;2023-07-29T08:19:29;24.40;91.40
32600;DHT22;19277;51.778;7.912;2023-07-29T08:21:55;24.50;91.30
32600;DHT22;19277;51.778;7.912;2023-07-29T08:24:20;24.50;91.30
32600;DHT22;19277;51.778;7.912;2023-07-29T08:26:46;24.60;91.80
32600;DHT22;19277;51.778;7.912;2023-07-29T08:29:11;24.60;90.70
32600;DHT22;19277;51.778;7.912;2023-07-29T08:31:37;24.60;90.90
32600;DHT22;19277;51.778;7.912;2023-07-29T08:34:03;24.60;90.60
32600;DHT22;19277;51.778;7.912;2023-07-29T08:36:29;24.60;90.30
32600;DHT22;19277;51.778;7.912;2023-07-29T08:38:54;24.60;90.40
32600;DHT22;19277;51.778;7.912;2023-07-29T08:41:25;24.70;90.30
32600;DHT22;19277;51.778;7.912;2023-07-29T08:44:09;24.70;90.50
32600;DHT22;19277;51.778;7.912;2023-07-29T08:46:35;24.70;90.20
32600;DHT22;19277;51.778;7.912;2023-07-29T08:49:01;24.70;89.60
32600;DHT22;19277;51.778;7.912;2023-07-29T08:51:27;24.70;90.80
32600;DHT22;19277;51.778;7.912;2023-07-29T08:53:54;24.70;90.10
32600;DHT22;19277;51.778;7.912;2023-07-29T08:56:20;24.70;89.30
32600;DHT22;19277;51.778;7.912;2023-07-29T08:58:46;24.70;90.90
32600;DHT22;19277;51.778;7.912;2023-07-29T09:01:12;24.70;89.80
32600;DHT22;19277;51.778;7.912;2023-07-29T09:03:38;24.70;90.00
32600;DHT22;19277;51.778;7.912;2023-07-29T09:06:04;24.70;90.30
32600;DHT22;19277;51.778;7.912;2023-07-29T09:08:31;24.70;90.70
32600;DHT22;19277;51.778;7.912;2023-07-29T09:10:57;24.70;90.30
32600;DHT22;19277;51.778;7.912;2023-07-29T09:13:23;24.70;90.60
32600;DHT22;19277;51.778;7.912;2023-07-29T09:15:48;24.70;90.40
32600;DHT22;19277;51.778;7.912;2023-07-29T09:18:19;24.70;90.30
32600;DHT22;19277;51.778;7.912;2023-07-29T09:20:49;24.70;90.20
32600;DHT22;19277;51.778;7.912;2023-07-29T09:23:15;24.70;90.00
32600;DHT22;19277;51.778;7.912;2023-07-29T09:25:41;24.70;88.80
32600;DHT22;19277;51.778;7.912;2023-07-29T09:28:14;24.70;90.10
32600;DHT22;19277;51.778;7.912;2023-07-29T09:30:42;24.70;88.10
32600;DHT22;19277;51.778;7.912;2023-07-29T09:33:09;24.70;88.90
32600;DHT22;19277;51.778;7.912;2023-07-29T09:35:36;24.70;88.70
32600;DHT22;19277;51.778;7.912;2023-07-29T09:38:04;24.70;89.00
32600;DHT22;19277;51.778;7.912;2023-07-29T09:40:40;24.70;89.30
32600;DHT22;19277;51.778;7.912;2023-07-29T09:43:08;24.70;88.30
32600;DHT22;19277;51.778;7.912;2023-07-29T09:45:34;24.70;88.90
32600;DHT22;19277;51.778;7.912;2023-07-29T09:48:03;24.70;90.30
32600;DHT22;19277;51.778;7.912;2023-07-29T09:50:30;24.70;89.70
32600;DHT22;19277;51.778;7.912;2023-07-29T09:52:56;24.70;89.00
32600;DHT22;19277;51.778;7.912;2023-07-29T09:55:26;24.70;90.00
32600;DHT22;19277;51.778;7.912;2023-07-29T09:57:58;24.70;90.20
32600;DHT22;19277;51.778;7.912;2023-07-29T10:00:27;24.70;89.20
32600;DHT22;19277;51.778;7.912;2023-07-29T10:02:53;24.70;90.00
32600;DHT22;19277;51.778;7.912;2023-07-29T10:05:21;24.70;90.30
32600;DHT22;19277;51.778;7.912;2023-07-29T10:07:47;24.70;90.00
32600;DHT22;19277;51.778;7.912;2023-07-29T10:10:14;24.70;88.90
32600;DHT22;19277;51.778;7.912;2023-07-29T10:12:40;24.80;89.60
32600;DHT22;19277;51.778;7.912;2023-07-29T10:15:08;24.80;90.20
32600;DHT22;19277;51.778;7.912;2023-07-29T10:17:35;24.80;90.20
32600;DHT22;19277;51.778;7.912;2023-07-29T10:20:03;24.80;89.10
32600;DHT22;19277;51.778;7.912;2023-07-29T10:22:37;24.80;89.20
32600;DHT22;19277;51.778;7.912;2023-07-29T10:25:07;24.80;89.10
32600;DHT22;19277;51.778;7.912;2023-07-29T10:27:47;24.80;89.60
32600;DHT22;19277;51.778;7.912;2023-07-29T10:30:13;24.80;89.00
32600;DHT22;19277;51.778;7.912;2023-07-29T10:32:42;24.80;88.50
32600;DHT22;19277;51.778;7.912;2023-07-29T10:35:10;24.80;88.60
32600;DHT22;19277;51.778;7.912;2023-07-29T10:37:36;24.90;88.50
32600;DHT22;19277;51.778;7.912;2023-07-29T10:40:06;24.90;88.90
32600;DHT22;19277;51.778;7.912;2023-07-29T10:42:32;24.90;88.30
32600;DHT22;19277;51.778;7.912;2023-07-29T10:44:58;24.90;88.70
32600;DHT22;19277;51.778;7.912;2023-07-29T10:47:28;24.90;88.30
32600;DHT22;19277;51.778;7.912;2023-07-29T10:49:58;24.80;87.60
32600;DHT22;19277;51.778;7.912;2023-07-29T10:55:02;24.90;88.90
32600;DHT22;19277;51.778;7.912;2023-07-29T10:57:39;24.90;88.90
32600;DHT22;19277;51.778;7.912;2023-07-29T11:00:08;24.90;89.30
32600;DHT22;19277;51.778;7.912;2023-07-29T11:02:36;24.90;89.00
32600;DHT22;19277;51.778;7.912;2023-07-29T11:05:16;24.90;88.20
32600;DHT22;19277;51.778;7.912;2023-07-29T11:07:48;24.90;89.10
32600;DHT22;19277;51.778;7.912;2023-07-29T11:10:15;24.90;90.00
32600;DHT22;19277;51.778;7.912;2023-07-29T11:12:46;24.90;89.90
32600;DHT22;19277;51.778;7.912;2023-07-29T11:15:14;24.90;90.00
32600;DHT22;19277;51.778;7.912;2023-07-29T11:17:42;24.90;90.30
32600;DHT22;19277;51.778;7.912;2023-07-29T11:20:08;24.90;90.30
32600;DHT22;19277;51.778;7.912;2023-07-29T11:22:35;24.90;90.20
32600;DHT22;19277;51.778;7.912;2023-07-29T11:25:00;25.00;90.20
32600;DHT22;19277;51.778;7.912;2023-07-29T11:27:26;25.00;90.50
32600;DHT22;19277;51.778;7.912;2023-07-29T11:29:57;25.00;90.80
32600;DHT22;19277;51.778;7.912;2023-07-29T11:32:24;25.00;90.60
32600;DHT22;19277;51.778;7.912;2023-07-29T11:34:50;25.00;90.70
32600;DHT22;19277;51.778;7.912;2023-07-29T11:37:16;25.00;91.10
32600;DHT22;19277;51.778;7.912;2023-07-29T11:39:43;25.00;90.60
32600;DHT22;19277;51.778;7.912;2023-07-29T11:42:14;25.00;91.00
32600;DHT22;19277;51.778;7.912;2023-07-29T11:44:40;25.10;91.10
32600;DHT22;19277;51.778;7.912;2023-07-29T11:47:07;25.10;91.10
32600;DHT22;19277;51.778;7.912;2023-07-29T11:49:34;25.10;91.10
32600;DHT22;19277;51.778;7.912;2023-07-29T11:52:00;25.10;91.10
32600;DHT22;19277;51.778;7.912;2023-07-29T11:54:26;25.10;91.00
32600;DHT22;19277;51.778;7.912;2023-07-29T11:56:52;25.10;90.90
32600;DHT22;19277;51.778;7.912;2023-07-29T11:59:17;25.10;90.40
32600;DHT22;19277;51.778;7.912;2023-07-29T12:01:43;25.10;90.80
32600;DHT22;19277;51.778;7.912;2023-07-29T12:04:09;25.00;90.60
32600;DHT22;19277;51.778;7.912;2023-07-29T12:06:35;25.10;90.60
32600;DHT22;19277;51.778;7.912;2023-07-29T12:09:01;25.10;90.60
32600;DHT22;19277;51.778;7.912;2023-07-29T12:11:27;25.10;90.80
32600;DHT22;19277;51.778;7.912;2023-07-29T12:13:55;25.10;90.60
32600;DHT22;19277;51.778;7.912;2023-07-29T12:16:21;25.10;90.60
32600;DHT22;19277;51.778;7.912;2023-07-29T12:18:46;25.10;90.50
32600;DHT22;19277;51.778;7.912;2023-07-29T12:21:14;25.10;90.60
32600;DHT22;19277;51.778;7.912;2023-07-29T12:23:40;25.10;90.50
32600;DHT22;19277;51.778;7.912;2023-07-29T12:26:05;25.10;90.30
32600;DHT22;19277;51.778;7.912;2023-07-29T12:28:31;25.10;90.00
32600;DHT22;19277;51.778;7.912;2023-07-29T12:30:57;25.10;90.60
32600;DHT22;19277;51.778;7.912;2023-07-29T12:33:36;25.10;90.20
32600;DHT22;19277;51.778;7.912;2023-07-29T12:36:04;25.10;90.20
32600;DHT22;19277;51.778;7.912;2023-07-29T12:38:30;25.10;90.10
32600;DHT22;19277;51.778;7.912;2023-07-29T12:40:56;25.10;90.40
32600;DHT22;19277;51.778;7.912;2023-07-29T12:43:21;25.10;90.00
32600;DHT22;19277;51.778;7.912;2023-07-29T12:45:51;25.10;90.40
32600;DHT22;19277;51.778;7.912;2023-07-29T12:48:16;25.20;90.30
32600;DHT22;19277;51.778;7.912;2023-07-29T12:50:42;25.20;90.40
32600;DHT22;19277;51.778;7.912;2023-07-29T12:53:08;25.10;90.70
32600;DHT22;19277;51.778;7.912;2023-07-29T12:55:37;25.10;90.20
32600;DHT22;19277;51.778;7.912;2023-07-29T12:58:03;25.20;90.80
32600;DHT22;19277;51.778;7.912;2023-07-29T13:00:29;25.20;90.50
32600;DHT22;19277;51.778;7.912;2023-07-29T13:02:55;25.20;90.30
32600;DHT22;19277;51.778;7.912;2023-07-29T13:05:20;25.20;90.20
32600;DHT22;19277;51.778;7.912;2023-07-29T13:07:46;25.20;90.60
32600;DHT22;19277;51.778;7.912;2023-07-29T13:10:12;25.30;90.60
32600;DHT22;19277;51.778;7.912;2023-07-29T13:12:38;25.30;90.50
32600;DHT22;19277;51.778;7.912;2023-07-29T13:15:04;25.30;90.40
32600;DHT22;19277;51.778;7.912;2023-07-29T13:17:30;25.20;90.50
32600;DHT22;19277;51.778;7.912;2023-07-29T13:19:55;25.30;90.40
32600;DHT22;19277;51.778;7.912;2023-07-29T13:22:21;25.30;90.60
32600;DHT22;19277;51.778;7.912;2023-07-29T13:24:47;25.30;90.20
32600;DHT22;19277;51.778;7.912;2023-07-29T13:27:12;25.30;89.80
32600;DHT22;19277;51.778;7.912;2023-07-29T13:29:39;25.30;90.30
32600;DHT22;19277;51.778;7.912;2023-07-29T13:32:05;25.30;90.30
32600;DHT22;19277;51.778;7.912;2023-07-29T13:34:31;25.30;90.00
32600;DHT22;19277;51.778;7.912;2023-07-29T13:36:56;25.30;90.00
32600;DHT22;19277;51.778;7.912;2023-07-29T13:39:22;25.30;89.80
32600;DHT22;19277;51.778;7.912;2023-07-29T13:41:48;25.30;89.50
32600;DHT22;19277;51.778;7.912;2023-07-29T13:44:13;25.30;89.20
32600;DHT22;19277;51.778;7.912;2023-07-29T13:46:39;25.30;89.30
32600;DHT22;19277;51.778;7.912;2023-07-29T13:49:04;25.30;89.70
32600;DHT22;19277;51.778;7.912;2023-07-29T13:51:30;25.20;89.30
32600;DHT22;19277;51.778;7.912;2023-07-29T13:53:55;25.20;89.30
32600;DHT22;19277;51.778;7.912;2023-07-29T13:56:22;25.20;88.40
32600;DHT22;19277;51.778;7.912;2023-07-29T13:58:47;25.20;88.70
32600;DHT22;19277;51.778;7.912;2023-07-29T14:01:13;25.20;88.20
32600;DHT22;19277;51.778;7.912;2023-07-29T14:03:38;25.20;88.90
32600;DHT22;19277;51.778;7.912;2023-07-29T14:06:04;25.20;89.10
32600;DHT22;19277;51.778;7.912;2023-07-29T14:08:30;25.20;88.50
32600;DHT22;19277;51.778;7.912;2023-07-29T14:10:55;25.20;89.20
32600;DHT22;19277;51.778;7.912;2023-07-29T14:13:21;25.20;89.40
32600;DHT22;19277;51.778;7.912;2023-07-29T14:15:46;25.20;88.50
32600;DHT22;19277;51.778;7.912;2023-07-29T14:18:12;25.20;88.90
32600;DHT22;19277;51.778;7.912;2023-07-29T14:20:37;25.30;88.70
32600;DHT22;19277;51.778;7.912;2023-07-29T14:23:03;25.20;88.80
32600;DHT22;19277;51.778;7.912;2023-07-29T14:25:29;25.20;88.50
32600;DHT22;19277;51.778;7.912;2023-07-29T14:27:55;25.20;88.20
32600;DHT22;19277;51.778;7.912;2023-07-29T14:30:20;25.20;87.50
32600;DHT22;19277;51.778;7.912;2023-07-29T14:32:46;25.20;87.30
32600;DHT22;19277;51.778;7.912;2023-07-29T14:35:12;25.20;87.10
32600;DHT22;19277;51.778;7.912;2023-07-29T14:37:38;25.20;87.60
32600;DHT22;19277;51.778;7.912;2023-07-29T14:40:04;25.20;86.80
32600;DHT22;19277;51.778;7.912;2023-07-29T14:42:30;25.20;88.40
32600;DHT22;19277;51.778;7.912;2023-07-29T14:44:55;25.10;87.40
32600;DHT22;19277;51.778;7.912;2023-07-29T14:47:21;25.10;88.00
32600;DHT22;19277;51.778;7.912;2023-07-29T14:49:46;25.10;85.80
32600;DHT22;19277;51.778;7.912;2023-07-29T14:52:13;25.10;86.40
32600;DHT22;19277;51.778;7.912;2023-07-29T14:54:39;25.10;86.40
32600;DHT22;19277;51.778;7.912;2023-07-29T14:57:06;25.10;86.20
32600;DHT22;19277;51.778;7.912;2023-07-29T14:59:32;25.10;86.70
32600;DHT22;19277;51.778;7.912;2023-07-29T15:01:58;25.10;85.90
32600;DHT22;19277;51.778;7.912;2023-07-29T15:04:24;25.10;87.10
32600;DHT22;19277;51.778;7.912;2023-07-29T15:06:50;25.00;86.60
32600;DHT22;19277;51.778;7.912;2023-07-29T15:09:15;25.00;86.80
32600;DHT22;19277;51.778;7.912;2023-07-29T15:11:41;25.00;87.40
32600;DHT22;19277;51.778;7.912;2023-07-29T15:14:07;25.00;87.10
32600;DHT22;19277;51.778;7.912;2023-07-29T15:16:33;24.90;87.40
32600;DHT22;19277;51.778;7.912;2023-07-29T15:19:03;24.90;87.10
32600;DHT22;19277;51.778;7.912;2023-07-29T15:21:29;24.90;87.40
32600;DHT22;19277;51.778;7.912;2023-07-29T15:23:55;24.90;87.40
32600;DHT22;19277;51.778;7.912;2023-07-29T15:26:21;24.90;87.30
32600;DHT22;19277;51.778;7.912;2023-07-29T15:28:46;24.80;87.60
32600;DHT22;19277;51.778;7.912;2023-07-29T15:31:15;24.80;87.50